Marco Polo — C6JZ7 — position and weather

sailwx.info

Track history (hours):
 
Tides and Currents Weather Stations Pressure Air Temp Water Temp Dewpoint Dewpoint Depression Visibility Wind Speed Wind Dir Waves Ship Positions

Marco Polo

Operator: Orient Lines

Last reported at 2014-Jul-30 23:33 UTC. Time now 2014-Jul-31 07:24 UTC.
Position N 59°23' E 005°18'.

Type: Passenger vessel. MMSI: 308693000.

Date/timePositionNaut miles runAvg speedWind from/ knotsBaromVisibWave heightAir tempDewpointWater temp
2014-Jul-30 23:33N 59°23' E 005°18'1111.0
2014-Jul-30 22:33N 59°12' E 005°21'1514.7
2014-Jul-30 21:33N 58°57' E 005°18'3916.6
2014-Jul-30 19:13N 58°19' E 005°05'1216.5
2014-Jul-30 18:29N 58°07' E 005°01'34617.3
2014-Jul-29 22:27N 52°34' E 002°21'1415.8
2014-Jul-29 21:33N 52°21' E 002°13'1616.3
2014-Jul-29 20:34N 52°06' E 001°60'1716.9
2014-Jul-29 19:33N 51°51' E 001°48'1110.8
2014-Jul-29 18:33N 51°46' E 001°32'1717.3
2014-Jul-29 17:33N 51°34' E 001°13'1817.7
2014-Jul-29 16:33N 51°29' E 000°45'1313.2
2014-Jul-29 15:33N 51°27' E 000°24'2 1.6
2014-Jul-29 14:33N 51°27' E 000°22'0 0.0
2014-Jul-29 13:33N 51°27' E 000°22'0 0.0
2014-Jul-29 12:33N 51°27' E 000°22'0 0.0
2014-Jul-29 11:33N 51°27' E 000°22'0 0.0
2014-Jul-29 10:33N 51°27' E 000°22'0 0.0
2014-Jul-29 09:33N 51°27' E 000°22'0 0.0
2014-Jul-29 08:33N 51°27' E 000°22'0 0.0
2014-Jul-29 07:33N 51°27' E 000°22'0 0.0
2014-Jul-29 06:33N 51°27' E 000°22'4 4.3
2014-Jul-29 05:33N 51°29' E 000°28'1211.6
2014-Jul-29 04:34N 51°29' E 000°46'1414.0
2014-Jul-29 03:34N 51°29' E 001°09'1414.1
2014-Jul-29 02:33N 51°26' E 001°31'1110.8
2014-Jul-29 01:33N 51°16' E 001°38'1211.9
2014-Jul-29 00:33N 51°04' E 001°38'4313.5
2014-Jul-28 21:21N 50°30' E 000°57'1113.4
2014-Jul-28 20:33N 50°26' E 000°41'5911.6
2014-Jul-28 15:29N 49°36' W 000°06'1111.4
2014-Jul-28 14:33N 49°27' E 000°03'8 7.6
2014-Jul-28 13:32N 49°26' E 000°14'0 0.0
2014-Jul-28 12:32N 49°26' E 000°14'0 0.0
2014-Jul-28 11:31N 49°26' E 000°14'0 0.0
2014-Jul-28 10:28N 49°26' E 000°14'0 0.0
2014-Jul-28 09:33N 49°26' E 000°14'0 0.0
2014-Jul-28 08:32N 49°26' E 000°14'0 0.0
2014-Jul-28 07:31N 49°26' E 000°14'0 0.0
2014-Jul-28 06:32N 49°26' E 000°14'0 0.0
2014-Jul-28 05:31N 49°26' E 000°14'0 0.0
2014-Jul-28 04:31N 49°26' E 000°14'0 0.0
2014-Jul-28 03:24N 49°26' E 000°14'1 0.7
2014-Jul-28 02:33N 49°26' E 000°13'10 9.6
2014-Jul-28 01:33N 49°28' W 000°01'1312.8
2014-Jul-28 00:33N 49°32' W 000°20'85 9.3
2014-Jul-27 15:23N 49°28' W 002°31'159 4.6
2014-Jul-26 04:31N 50°33' W 006°16'3717.3
2014-Jul-26 02:22N 51°10' W 006°07'1818.2
2014-Jul-26 01:22N 51°28' W 006°02'1718.7
2014-Jul-26 00:28N 51°45' W 005°57'127 6.1
2014-Jul-25 03:32N 53°52' W 005°40'3115.6
2014-Jul-25 01:33N 54°20' W 005°19'1615.7
2014-Jul-25 00:33N 54°36' W 005°20'1515.0
2014-Jul-24 23:34N 54°50' W 005°28'3316.6
2014-Jul-24 21:33N 55°17' W 006°03'1717.2
2014-Jul-24 20:33N 55°28' W 006°25'1818.4
2014-Jul-24 19:33N 55°45' W 006°39'141 5.8
2014-Jul-23 19:18N 58°05' W 006°19'6 8.8
2014-Jul-23 18:34N 58°12' W 006°22'0 0.1
2014-Jul-23 17:33N 58°12' W 006°22'0 0.0
2014-Jul-23 16:32N 58°12' W 006°22'0 0.0
2014-Jul-23 15:32N 58°12' W 006°22'0 0.0
2014-Jul-23 14:31N 58°12' W 006°22'0 0.0
2014-Jul-23 13:31N 58°12' W 006°22'0 0.0
2014-Jul-23 12:33N 58°12' W 006°22'0 0.0
2014-Jul-23 11:33N 58°12' W 006°22'0 0.0
2014-Jul-23 10:12N 58°12' W 006°22'0 0.0
2014-Jul-23 09:27N 58°12' W 006°22'0 0.0
2014-Jul-23 08:33N 58°12' W 006°22'0 0.0
2014-Jul-23 07:33N 58°12' W 006°22'0 0.0
2014-Jul-23 06:33N 58°12' W 006°22'1 0.5
2014-Jul-23 05:33N 58°11' W 006°22'1111.3
2014-Jul-23 04:34N 58°15' W 006°01'4414.5
2014-Jul-23 01:30N 58°42' W 004°55'1111.6
2014-Jul-23 00:33N 58°48' W 004°37'1110.8
2014-Jul-22 23:33N 58°53' W 004°19'1110.7
2014-Jul-22 22:33N 58°59' W 004°01'1010.3
2014-Jul-22 21:33N 59°04' W 003°44'10 9.9
2014-Jul-22 20:34N 59°09' W 003°27'10 9.7
2014-Jul-22 19:34N 59°13' W 003°10'10 9.9
2014-Jul-22 18:33N 59°10' W 002°51'9 9.4
2014-Jul-22 17:33N 59°00' W 002°49'5 4.8
2014-Jul-22 16:31N 59°00' W 002°58'0 0.0
2014-Jul-22 15:31N 59°00' W 002°58'0 0.0
2014-Jul-22 14:33N 59°00' W 002°58'0 0.0
2014-Jul-22 13:33N 59°00' W 002°58'0 0.0
2014-Jul-22 12:32N 59°00' W 002°58'0 0.0
2014-Jul-22 11:33N 59°00' W 002°58'0 0.0
2014-Jul-22 10:33N 59°00' W 002°58'0 0.0
2014-Jul-22 09:32N 59°00' W 002°58'0 0.0
2014-Jul-22 08:31N 59°00' W 002°58'0 0.0
2014-Jul-22 07:31N 59°00' W 002°58'0 0.0
2014-Jul-22 06:32N 59°00' W 002°58'0 0.1
2014-Jul-22 05:33N 58°60' W 002°58'7 6.6
2014-Jul-22 04:33N 59°00' W 002°45'79 2.8
2014-Jul-21 00:33N 57°46' W 001°55'1414.2
2014-Jul-20 23:33N 57°34' W 001°39'  
Track history (hours):
 
Tides and Currents Weather Stations Pressure Air Temp Water Temp Dewpoint Dewpoint Depression Visibility Wind Speed Wind Dir Waves Ship Positions

Marco Polo

Operator: Orient Lines

Last reported at 2014-Jul-30 23:33 UTC. Time now 2014-Jul-31 07:24 UTC.
Position N 59°23' E 005°18'.

Type: Passenger vessel. MMSI: 308693000.

Date/timePositionNaut miles runAvg speedWind from/ knotsBaromVisibWave heightAir tempDewpointWater temp
2014-Jul-30 23:33N 59°23' E 005°18'1111.0
2014-Jul-30 22:33N 59°12' E 005°21'1514.7
2014-Jul-30 21:33N 58°57' E 005°18'3916.6
2014-Jul-30 19:13N 58°19' E 005°05'1216.5
2014-Jul-30 18:29N 58°07' E 005°01'34617.3
2014-Jul-29 22:27N 52°34' E 002°21'1415.8
2014-Jul-29 21:33N 52°21' E 002°13'1616.3
2014-Jul-29 20:34N 52°06' E 001°60'1716.9
2014-Jul-29 19:33N 51°51' E 001°48'1110.8
2014-Jul-29 18:33N 51°46' E 001°32'1717.3
2014-Jul-29 17:33N 51°34' E 001°13'1817.7
2014-Jul-29 16:33N 51°29' E 000°45'1313.2
2014-Jul-29 15:33N 51°27' E 000°24'2 1.6
2014-Jul-29 14:33N 51°27' E 000°22'0 0.0
2014-Jul-29 13:33N 51°27' E 000°22'0 0.0
2014-Jul-29 12:33N 51°27' E 000°22'0 0.0
2014-Jul-29 11:33N 51°27' E 000°22'0 0.0
2014-Jul-29 10:33N 51°27' E 000°22'0 0.0
2014-Jul-29 09:33N 51°27' E 000°22'0 0.0
2014-Jul-29 08:33N 51°27' E 000°22'0 0.0
2014-Jul-29 07:33N 51°27' E 000°22'0 0.0
2014-Jul-29 06:33N 51°27' E 000°22'4 4.3
2014-Jul-29 05:33N 51°29' E 000°28'1211.6
2014-Jul-29 04:34N 51°29' E 000°46'1414.0
2014-Jul-29 03:34N 51°29' E 001°09'1414.1
2014-Jul-29 02:33N 51°26' E 001°31'1110.8
2014-Jul-29 01:33N 51°16' E 001°38'1211.9
2014-Jul-29 00:33N 51°04' E 001°38'4313.5
2014-Jul-28 21:21N 50°30' E 000°57'1113.4
2014-Jul-28 20:33N 50°26' E 000°41'5911.6
2014-Jul-28 15:29N 49°36' W 000°06'1111.4
2014-Jul-28 14:33N 49°27' E 000°03'8 7.6
2014-Jul-28 13:32N 49°26' E 000°14'0 0.0
2014-Jul-28 12:32N 49°26' E 000°14'0 0.0
2014-Jul-28 11:31N 49°26' E 000°14'0 0.0
2014-Jul-28 10:28N 49°26' E 000°14'0 0.0
2014-Jul-28 09:33N 49°26' E 000°14'0 0.0
2014-Jul-28 08:32N 49°26' E 000°14'0 0.0
2014-Jul-28 07:31N 49°26' E 000°14'0 0.0
2014-Jul-28 06:32N 49°26' E 000°14'0 0.0
2014-Jul-28 05:31N 49°26' E 000°14'0 0.0
2014-Jul-28 04:31N 49°26' E 000°14'0 0.0
2014-Jul-28 03:24N 49°26' E 000°14'1 0.7
2014-Jul-28 02:33N 49°26' E 000°13'10 9.6
2014-Jul-28 01:33N 49°28' W 000°01'1312.8
2014-Jul-28 00:33N 49°32' W 000°20'85 9.3
2014-Jul-27 15:23N 49°28' W 002°31'159 4.6
2014-Jul-26 04:31N 50°33' W 006°16'3717.3
2014-Jul-26 02:22N 51°10' W 006°07'1818.2
2014-Jul-26 01:22N 51°28' W 006°02'1718.7
2014-Jul-26 00:28N 51°45' W 005°57'127 6.1
2014-Jul-25 03:32N 53°52' W 005°40'3115.6
2014-Jul-25 01:33N 54°20' W 005°19'1615.7
2014-Jul-25 00:33N 54°36' W 005°20'1515.0
2014-Jul-24 23:34N 54°50' W 005°28'3316.6
2014-Jul-24 21:33N 55°17' W 006°03'1717.2
2014-Jul-24 20:33N 55°28' W 006°25'1818.4
2014-Jul-24 19:33N 55°45' W 006°39'141 5.8
2014-Jul-23 19:18N 58°05' W 006°19'6 8.8
2014-Jul-23 18:34N 58°12' W 006°22'0 0.1
2014-Jul-23 17:33N 58°12' W 006°22'0 0.0
2014-Jul-23 16:32N 58°12' W 006°22'0 0.0
2014-Jul-23 15:32N 58°12' W 006°22'0 0.0
2014-Jul-23 14:31N 58°12' W 006°22'0 0.0
2014-Jul-23 13:31N 58°12' W 006°22'0 0.0
2014-Jul-23 12:33N 58°12' W 006°22'0 0.0
2014-Jul-23 11:33N 58°12' W 006°22'0 0.0
2014-Jul-23 10:12N 58°12' W 006°22'0 0.0
2014-Jul-23 09:27N 58°12' W 006°22'0 0.0
2014-Jul-23 08:33N 58°12' W 006°22'0 0.0
2014-Jul-23 07:33N 58°12' W 006°22'0 0.0
2014-Jul-23 06:33N 58°12' W 006°22'1 0.5
2014-Jul-23 05:33N 58°11' W 006°22'1111.3
2014-Jul-23 04:34N 58°15' W 006°01'4414.5
2014-Jul-23 01:30N 58°42' W 004°55'1111.6
2014-Jul-23 00:33N 58°48' W 004°37'1110.8
2014-Jul-22 23:33N 58°53' W 004°19'1110.7
2014-Jul-22 22:33N 58°59' W 004°01'1010.3
2014-Jul-22 21:33N 59°04' W 003°44'10 9.9
2014-Jul-22 20:34N 59°09' W 003°27'10 9.7
2014-Jul-22 19:34N 59°13' W 003°10'10 9.9
2014-Jul-22 18:33N 59°10' W 002°51'9 9.4
2014-Jul-22 17:33N 59°00' W 002°49'5 4.8
2014-Jul-22 16:31N 59°00' W 002°58'0 0.0
2014-Jul-22 15:31N 59°00' W 002°58'0 0.0
2014-Jul-22 14:33N 59°00' W 002°58'0 0.0
2014-Jul-22 13:33N 59°00' W 002°58'0 0.0
2014-Jul-22 12:32N 59°00' W 002°58'0 0.0
2014-Jul-22 11:33N 59°00' W 002°58'0 0.0
2014-Jul-22 10:33N 59°00' W 002°58'0 0.0
2014-Jul-22 09:32N 59°00' W 002°58'0 0.0
2014-Jul-22 08:31N 59°00' W 002°58'0 0.0
2014-Jul-22 07:31N 59°00' W 002°58'0 0.0
2014-Jul-22 06:32N 59°00' W 002°58'0 0.1
2014-Jul-22 05:33N 58°60' W 002°58'7 6.6
2014-Jul-22 04:33N 59°00' W 002°45'79 2.8
2014-Jul-21 00:33N 57°46' W 001°55'1414.2
2014-Jul-20 23:33N 57°34' W 001°39'  

Dump ship's entire track history